sensor_id;sensor_type;location;lat;lon;timestamp;P1;durP1;ratioP1;P2;durP2;ratioP2
17872;SDS011;36318;42.620;23.338;2022-08-25T00:00:06;23.53;;;9.53;;
17872;SDS011;36318;42.620;23.338;2022-08-25T00:02:35;29.47;;;10.40;;
17872;SDS011;36318;42.620;23.338;2022-08-25T00:05:02;22.67;;;10.87;;
17872;SDS011;36318;42.620;23.338;2022-08-25T00:07:29;21.33;;;9.93;;
17872;SDS011;36318;42.620;23.338;2022-08-25T00:09:56;30.73;;;10.10;;
17872;SDS011;36318;42.620;23.338;2022-08-25T00:12:23;32.97;;;10.07;;
17872;SDS011;36318;42.620;23.338;2022-08-25T00:14:50;20.07;;;10.03;;
17872;SDS011;36318;42.620;23.338;2022-08-25T00:17:17;24.07;;;10.37;;
17872;SDS011;36318;42.620;23.338;2022-08-25T00:19:45;19.93;;;10.73;;
17872;SDS011;36318;42.620;23.338;2022-08-25T00:22:12;27.07;;;10.67;;
17872;SDS011;36318;42.620;23.338;2022-08-25T00:24:39;21.67;;;9.53;;
17872;SDS011;36318;42.620;23.338;2022-08-25T00:27:05;17.30;;;10.10;;
17872;SDS011;36318;42.620;23.338;2022-08-25T00:29:32;18.93;;;9.10;;
17872;SDS011;36318;42.620;23.338;2022-08-25T00:32:02;29.33;;;9.33;;
17872;SDS011;36318;42.620;23.338;2022-08-25T00:34:31;18.97;;;9.63;;
17872;SDS011;36318;42.620;23.338;2022-08-25T00:37:05;21.63;;;9.03;;
17872;SDS011;36318;42.620;23.338;2022-08-25T00:39:34;18.53;;;8.27;;
17872;SDS011;36318;42.620;23.338;2022-08-25T00:42:02;17.03;;;9.23;;
17872;SDS011;36318;42.620;23.338;2022-08-25T00:44:30;28.17;;;9.37;;
17872;SDS011;36318;42.620;23.338;2022-08-25T00:46:59;24.10;;;9.33;;
17872;SDS011;36318;42.620;23.338;2022-08-25T00:49:28;20.43;;;8.67;;
17872;SDS011;36318;42.620;23.338;2022-08-25T00:51:58;23.13;;;9.03;;
17872;SDS011;36318;42.620;23.338;2022-08-25T00:54:30;18.83;;;8.70;;
17872;SDS011;36318;42.620;23.338;2022-08-25T00:56:59;22.40;;;8.70;;
17872;SDS011;36318;42.620;23.338;2022-08-25T00:59:27;23.80;;;9.07;;
17872;SDS011;36318;42.620;23.338;2022-08-25T01:01:55;27.50;;;9.53;;
17872;SDS011;36318;42.620;23.338;2022-08-25T01:04:23;18.20;;;9.20;;
17872;SDS011;36318;42.620;23.338;2022-08-25T01:06:51;20.43;;;9.20;;
17872;SDS011;36318;42.620;23.338;2022-08-25T01:09:19;20.00;;;9.50;;
17872;SDS011;36318;42.620;23.338;2022-08-25T01:11:48;26.37;;;9.77;;
17872;SDS011;36318;42.620;23.338;2022-08-25T01:14:16;23.47;;;10.07;;
17872;SDS011;36318;42.620;23.338;2022-08-25T01:16:45;27.60;;;9.33;;
17872;SDS011;36318;42.620;23.338;2022-08-25T01:19:13;20.27;;;10.60;;
17872;SDS011;36318;42.620;23.338;2022-08-25T01:21:43;28.57;;;10.30;;
17872;SDS011;36318;42.620;23.338;2022-08-25T01:24:13;28.43;;;10.90;;
17872;SDS011;36318;42.620;23.338;2022-08-25T01:26:44;26.20;;;11.73;;
17872;SDS011;36318;42.620;23.338;2022-08-25T01:29:11;31.63;;;13.33;;
17872;SDS011;36318;42.620;23.338;2022-08-25T01:31:50;23.00;;;13.00;;
17872;SDS011;36318;42.620;23.338;2022-08-25T01:34:22;23.93;;;13.80;;
17872;SDS011;36318;42.620;23.338;2022-08-25T01:36:51;28.20;;;14.80;;
17872;SDS011;36318;42.620;23.338;2022-08-25T01:39:19;33.70;;;14.20;;
17872;SDS011;36318;42.620;23.338;2022-08-25T01:41:53;30.43;;;14.27;;
17872;SDS011;36318;42.620;23.338;2022-08-25T01:44:34;24.50;;;13.33;;
17872;SDS011;36318;42.620;23.338;2022-08-25T01:47:02;20.67;;;13.83;;
17872;SDS011;36318;42.620;23.338;2022-08-25T01:49:30;25.90;;;14.63;;
17872;SDS011;36318;42.620;23.338;2022-08-25T01:52:00;27.53;;;13.73;;
17872;SDS011;36318;42.620;23.338;2022-08-25T01:54:32;27.77;;;15.07;;
17872;SDS011;36318;42.620;23.338;2022-08-25T01:56:59;22.33;;;14.63;;
17872;SDS011;36318;42.620;23.338;2022-08-25T01:59:26;25.60;;;14.47;;
17872;SDS011;36318;42.620;23.338;2022-08-25T02:01:53;31.50;;;14.43;;
17872;SDS011;36318;42.620;23.338;2022-08-25T02:04:20;23.87;;;13.57;;
17872;SDS011;36318;42.620;23.338;2022-08-25T02:06:47;23.53;;;14.17;;
17872;SDS011;36318;42.620;23.338;2022-08-25T02:09:15;31.27;;;14.67;;
17872;SDS011;36318;42.620;23.338;2022-08-25T02:11:44;25.53;;;15.17;;
17872;SDS011;36318;42.620;23.338;2022-08-25T02:14:12;22.93;;;14.77;;
17872;SDS011;36318;42.620;23.338;2022-08-25T02:16:41;24.90;;;15.80;;
17872;SDS011;36318;42.620;23.338;2022-08-25T02:19:12;26.23;;;15.80;;
17872;SDS011;36318;42.620;23.338;2022-08-25T02:21:40;25.37;;;15.27;;
17872;SDS011;36318;42.620;23.338;2022-08-25T02:24:07;25.40;;;15.60;;
17872;SDS011;36318;42.620;23.338;2022-08-25T02:26:36;22.37;;;15.53;;
17872;SDS011;36318;42.620;23.338;2022-08-25T02:29:04;24.33;;;15.77;;
17872;SDS011;36318;42.620;23.338;2022-08-25T02:31:31;26.90;;;16.03;;
17872;SDS011;36318;42.620;23.338;2022-08-25T02:33:59;24.70;;;15.00;;
17872;SDS011;36318;42.620;23.338;2022-08-25T02:36:27;24.77;;;16.07;;
17872;SDS011;36318;42.620;23.338;2022-08-25T02:38:54;29.13;;;14.93;;
17872;SDS011;36318;42.620;23.338;2022-08-25T02:41:22;25.70;;;14.37;;
17872;SDS011;36318;42.620;23.338;2022-08-25T02:43:52;27.47;;;15.10;;
17872;SDS011;36318;42.620;23.338;2022-08-25T02:46:19;28.93;;;13.63;;
17872;SDS011;36318;42.620;23.338;2022-08-25T02:48:47;20.70;;;13.33;;
17872;SDS011;36318;42.620;23.338;2022-08-25T02:51:17;26.87;;;13.77;;
17872;SDS011;36318;42.620;23.338;2022-08-25T02:53:44;26.20;;;14.83;;
17872;SDS011;36318;42.620;23.338;2022-08-25T02:56:12;22.97;;;13.27;;
17872;SDS011;36318;42.620;23.338;2022-08-25T02:58:42;21.37;;;11.33;;
17872;SDS011;36318;42.620;23.338;2022-08-25T03:01:12;24.20;;;12.33;;
17872;SDS011;36318;42.620;23.338;2022-08-25T03:03:39;22.73;;;11.13;;
17872;SDS011;36318;42.620;23.338;2022-08-25T03:06:08;21.00;;;12.37;;
17872;SDS011;36318;42.620;23.338;2022-08-25T03:08:37;28.13;;;12.73;;
17872;SDS011;36318;42.620;23.338;2022-08-25T03:11:04;22.23;;;12.30;;
17872;SDS011;36318;42.620;23.338;2022-08-25T03:13:31;22.17;;;11.90;;
17872;SDS011;36318;42.620;23.338;2022-08-25T03:15:59;27.10;;;13.03;;
17872;SDS011;36318;42.620;23.338;2022-08-25T03:18:28;24.03;;;11.70;;
17872;SDS011;36318;42.620;23.338;2022-08-25T03:20:55;21.43;;;12.20;;
17872;SDS011;36318;42.620;23.338;2022-08-25T03:23:22;21.77;;;11.03;;
17872;SDS011;36318;42.620;23.338;2022-08-25T03:25:49;17.73;;;11.20;;
17872;SDS011;36318;42.620;23.338;2022-08-25T03:28:33;31.97;;;11.27;;
17872;SDS011;36318;42.620;23.338;2022-08-25T03:31:00;22.63;;;11.87;;
17872;SDS011;36318;42.620;23.338;2022-08-25T03:33:29;25.63;;;11.30;;
17872;SDS011;36318;42.620;23.338;2022-08-25T03:35:56;24.97;;;12.40;;
17872;SDS011;36318;42.620;23.338;2022-08-25T03:38:24;23.93;;;11.60;;
17872;SDS011;36318;42.620;23.338;2022-08-25T03:40:51;19.20;;;11.03;;
17872;SDS011;36318;42.620;23.338;2022-08-25T03:43:19;31.27;;;11.23;;
17872;SDS011;36318;42.620;23.338;2022-08-25T03:45:47;21.80;;;11.87;;
17872;SDS011;36318;42.620;23.338;2022-08-25T03:48:14;25.07;;;11.57;;
17872;SDS011;36318;42.620;23.338;2022-08-25T03:50:44;20.70;;;11.77;;
17872;SDS011;36318;42.620;23.338;2022-08-25T03:53:12;26.07;;;11.30;;
17872;SDS011;36318;42.620;23.338;2022-08-25T03:55:39;23.53;;;11.93;;
17872;SDS011;36318;42.620;23.338;2022-08-25T03:58:06;17.57;;;11.60;;
17872;SDS011;36318;42.620;23.338;2022-08-25T04:00:33;19.30;;;12.30;;
17872;SDS011;36318;42.620;23.338;2022-08-25T04:03:00;29.27;;;12.57;;
17872;SDS011;36318;42.620;23.338;2022-08-25T04:05:27;22.00;;;11.90;;
17872;SDS011;36318;42.620;23.338;2022-08-25T04:07:55;23.90;;;14.57;;
17872;SDS011;36318;42.620;23.338;2022-08-25T04:10:22;26.67;;;13.30;;
17872;SDS011;36318;42.620;23.338;2022-08-25T04:12:49;21.73;;;12.77;;
17872;SDS011;36318;42.620;23.338;2022-08-25T04:15:16;26.90;;;12.33;;
17872;SDS011;36318;42.620;23.338;2022-08-25T04:17:43;20.37;;;11.67;;
17872;SDS011;36318;42.620;23.338;2022-08-25T04:20:10;29.37;;;12.43;;
17872;SDS011;36318;42.620;23.338;2022-08-25T04:22:37;21.43;;;12.67;;
17872;SDS011;36318;42.620;23.338;2022-08-25T04:25:06;26.20;;;12.90;;
17872;SDS011;36318;42.620;23.338;2022-08-25T04:27:33;18.90;;;11.60;;
17872;SDS011;36318;42.620;23.338;2022-08-25T04:30:01;25.30;;;11.93;;
17872;SDS011;36318;42.620;23.338;2022-08-25T04:32:28;21.53;;;12.17;;
17872;SDS011;36318;42.620;23.338;2022-08-25T04:34:56;26.30;;;12.90;;
17872;SDS011;36318;42.620;23.338;2022-08-25T04:37:23;23.03;;;12.87;;
17872;SDS011;36318;42.620;23.338;2022-08-25T04:39:50;21.37;;;11.90;;
17872;SDS011;36318;42.620;23.338;2022-08-25T04:42:18;19.43;;;11.97;;
17872;SDS011;36318;42.620;23.338;2022-08-25T04:44:45;21.07;;;11.80;;
17872;SDS011;36318;42.620;23.338;2022-08-25T04:47:13;27.23;;;12.00;;
17872;SDS011;36318;42.620;23.338;2022-08-25T04:49:40;19.43;;;11.13;;
17872;SDS011;36318;42.620;23.338;2022-08-25T04:52:07;24.87;;;12.10;;
17872;SDS011;36318;42.620;23.338;2022-08-25T04:54:34;21.23;;;10.87;;
17872;SDS011;36318;42.620;23.338;2022-08-25T04:57:01;18.83;;;10.30;;
17872;SDS011;36318;42.620;23.338;2022-08-25T04:59:29;22.10;;;11.30;;
17872;SDS011;36318;42.620;23.338;2022-08-25T05:01:56;22.23;;;11.07;;
17872;SDS011;36318;42.620;23.338;2022-08-25T05:04:26;23.13;;;10.70;;
17872;SDS011;36318;42.620;23.338;2022-08-25T05:06:53;20.10;;;9.70;;
17872;SDS011;36318;42.620;23.338;2022-08-25T05:09:19;20.23;;;11.40;;
17872;SDS011;36318;42.620;23.338;2022-08-25T05:11:46;23.83;;;11.60;;
17872;SDS011;36318;42.620;23.338;2022-08-25T05:14:13;19.20;;;10.10;;
17872;SDS011;36318;42.620;23.338;2022-08-25T05:16:44;22.40;;;10.93;;
17872;SDS011;36318;42.620;23.338;2022-08-25T05:19:11;21.87;;;11.30;;
17872;SDS011;36318;42.620;23.338;2022-08-25T05:21:38;12.00;;;10.63;;
17872;SDS011;36318;42.620;23.338;2022-08-25T05:24:05;24.43;;;11.40;;
17872;SDS011;36318;42.620;23.338;2022-08-25T05:26:33;26.33;;;11.30;;
17872;SDS011;36318;42.620;23.338;2022-08-25T05:29:02;22.87;;;10.97;;
17872;SDS011;36318;42.620;23.338;2022-08-25T05:31:30;21.37;;;10.80;;
17872;SDS011;36318;42.620;23.338;2022-08-25T05:33:59;27.47;;;10.60;;
17872;SDS011;36318;42.620;23.338;2022-08-25T05:36:30;27.83;;;10.40;;
17872;SDS011;36318;42.620;23.338;2022-08-25T05:38:58;21.23;;;10.00;;
17872;SDS011;36318;42.620;23.338;2022-08-25T05:41:25;26.83;;;10.40;;
17872;SDS011;36318;42.620;23.338;2022-08-25T05:43:54;26.57;;;9.90;;
17872;SDS011;36318;42.620;23.338;2022-08-25T05:46:22;26.40;;;12.47;;
17872;SDS011;36318;42.620;23.338;2022-08-25T05:48:49;30.03;;;10.33;;
17872;SDS011;36318;42.620;23.338;2022-08-25T05:51:18;15.13;;;9.37;;
17872;SDS011;36318;42.620;23.338;2022-08-25T05:53:46;16.07;;;8.23;;
17872;SDS011;36318;42.620;23.338;2022-08-25T05:56:14;23.70;;;9.90;;
17872;SDS011;36318;42.620;23.338;2022-08-25T05:58:41;25.87;;;8.73;;
17872;SDS011;36318;42.620;23.338;2022-08-25T06:01:09;14.07;;;8.30;;
17872;SDS011;36318;42.620;23.338;2022-08-25T06:04:02;19.77;;;8.43;;
17872;SDS011;36318;42.620;23.338;2022-08-25T06:06:30;24.33;;;8.20;;
17872;SDS011;36318;42.620;23.338;2022-08-25T06:08:57;19.37;;;8.07;;
17872;SDS011;36318;42.620;23.338;2022-08-25T06:11:24;15.73;;;7.73;;
17872;SDS011;36318;42.620;23.338;2022-08-25T06:13:51;20.60;;;7.20;;
17872;SDS011;36318;42.620;23.338;2022-08-25T06:16:18;18.90;;;7.47;;
17872;SDS011;36318;42.620;23.338;2022-08-25T06:18:45;18.83;;;8.17;;
17872;SDS011;36318;42.620;23.338;2022-08-25T06:21:13;23.43;;;8.33;;
17872;SDS011;36318;42.620;23.338;2022-08-25T06:23:42;14.60;;;7.07;;
17872;SDS011;36318;42.620;23.338;2022-08-25T06:26:10;23.90;;;6.93;;
17872;SDS011;36318;42.620;23.338;2022-08-25T06:28:37;19.37;;;6.60;;
17872;SDS011;36318;42.620;23.338;2022-08-25T06:31:04;14.10;;;6.67;;
17872;SDS011;36318;42.620;23.338;2022-08-25T06:33:31;18.97;;;6.43;;
17872;SDS011;36318;42.620;23.338;2022-08-25T06:35:58;23.13;;;7.37;;
17872;SDS011;36318;42.620;23.338;2022-08-25T06:38:25;25.33;;;6.50;;
17872;SDS011;36318;42.620;23.338;2022-08-25T06:40:55;20.47;;;6.80;;
17872;SDS011;36318;42.620;23.338;2022-08-25T06:43:22;16.77;;;6.50;;
17872;SDS011;36318;42.620;23.338;2022-08-25T06:45:49;19.20;;;5.23;;
17872;SDS011;36318;42.620;23.338;2022-08-25T06:48:16;22.57;;;6.50;;
17872;SDS011;36318;42.620;23.338;2022-08-25T06:50:42;17.52;;;7.00;;
17872;SDS011;36318;42.620;23.338;2022-08-25T06:53:10;27.50;;;7.22;;
17872;SDS011;36318;42.620;23.338;2022-08-25T06:55:37;23.85;;;6.60;;
17872;SDS011;36318;42.620;23.338;2022-08-25T06:58:06;16.98;;;6.20;;
17872;SDS011;36318;42.620;23.338;2022-08-25T07:00:34;20.88;;;6.10;;
17872;SDS011;36318;42.620;23.338;2022-08-25T07:03:01;23.10;;;5.85;;
17872;SDS011;36318;42.620;23.338;2022-08-25T07:05:29;25.23;;;6.35;;
17872;SDS011;36318;42.620;23.338;2022-08-25T07:07:55;18.27;;;5.90;;
17872;SDS011;36318;42.620;23.338;2022-08-25T07:10:23;19.77;;;5.80;;
17872;SDS011;36318;42.620;23.338;2022-08-25T07:12:50;24.58;;;6.30;;
17872;SDS011;36318;42.620;23.338;2022-08-25T07:15:18;17.52;;;6.13;;
17872;SDS011;36318;42.620;23.338;2022-08-25T07:17:45;19.35;;;5.40;;
17872;SDS011;36318;42.620;23.338;2022-08-25T07:20:12;20.98;;;6.00;;
17872;SDS011;36318;42.620;23.338;2022-08-25T07:22:39;24.67;;;6.00;;
17872;SDS011;36318;42.620;23.338;2022-08-25T07:25:06;22.48;;;6.53;;
17872;SDS011;36318;42.620;23.338;2022-08-25T07:27:35;13.55;;;5.43;;
17872;SDS011;36318;42.620;23.338;2022-08-25T07:30:02;17.90;;;5.97;;
17872;SDS011;36318;42.620;23.338;2022-08-25T07:32:31;23.10;;;5.82;;
17872;SDS011;36318;42.620;23.338;2022-08-25T07:34:58;17.40;;;5.80;;
17872;SDS011;36318;42.620;23.338;2022-08-25T07:37:45;18.35;;;5.68;;
17872;SDS011;36318;42.620;23.338;2022-08-25T07:40:14;37.47;;;7.68;;
17872;SDS011;36318;42.620;23.338;2022-08-25T07:42:44;24.08;;;6.05;;
17872;SDS011;36318;42.620;23.338;2022-08-25T07:45:11;26.17;;;5.75;;
17872;SDS011;36318;42.620;23.338;2022-08-25T07:47:40;22.70;;;6.32;;
17872;SDS011;36318;42.620;23.338;2022-08-25T07:50:08;23.65;;;5.85;;
17872;SDS011;36318;42.620;23.338;2022-08-25T07:52:37;25.63;;;6.05;;
17872;SDS011;36318;42.620;23.338;2022-08-25T07:55:05;21.15;;;6.30;;
17872;SDS011;36318;42.620;23.338;2022-08-25T07:57:32;27.23;;;6.07;;
17872;SDS011;36318;42.620;23.338;2022-08-25T07:59:59;17.83;;;5.63;;
17872;SDS011;36318;42.620;23.338;2022-08-25T08:02:26;24.88;;;5.70;;
17872;SDS011;36318;42.620;23.338;2022-08-25T08:04:54;27.55;;;6.40;;
17872;SDS011;36318;42.620;23.338;2022-08-25T08:07:22;21.80;;;5.75;;
17872;SDS011;36318;42.620;23.338;2022-08-25T08:09:50;27.45;;;6.28;;
17872;SDS011;36318;42.620;23.338;2022-08-25T08:12:18;31.85;;;6.68;;
17872;SDS011;36318;42.620;23.338;2022-08-25T08:14:45;26.70;;;6.18;;
17872;SDS011;36318;42.620;23.338;2022-08-25T08:17:12;22.08;;;5.47;;
17872;SDS011;36318;42.620;23.338;2022-08-25T08:19:39;38.85;;;7.15;;
17872;SDS011;36318;42.620;23.338;2022-08-25T08:22:07;19.85;;;6.38;;
17872;SDS011;36318;42.620;23.338;2022-08-25T08:24:35;28.65;;;7.45;;
17872;SDS011;36318;42.620;23.338;2022-08-25T08:27:04;24.27;;;6.68;;
17872;SDS011;36318;42.620;23.338;2022-08-25T08:29:31;36.03;;;7.20;;
17872;SDS011;36318;42.620;23.338;2022-08-25T08:31:59;33.90;;;6.60;;
17872;SDS011;36318;42.620;23.338;2022-08-25T08:34:27;36.15;;;7.78;;
17872;SDS011;36318;42.620;23.338;2022-08-25T08:36:54;31.20;;;6.80;;
17872;SDS011;36318;42.620;23.338;2022-08-25T08:39:22;27.10;;;6.95;;
17872;SDS011;36318;42.620;23.338;2022-08-25T08:42:04;35.03;;;8.10;;
17872;SDS011;36318;42.620;23.338;2022-08-25T08:47:45;33.05;;;7.63;;
17872;SDS011;36318;42.620;23.338;2022-08-25T08:50:23;32.15;;;7.05;;
17872;SDS011;36318;42.620;23.338;2022-08-25T08:52:56;25.67;;;7.22;;
17872;SDS011;36318;42.620;23.338;2022-08-25T08:55:32;31.77;;;6.30;;
17872;SDS011;36318;42.620;23.338;2022-08-25T08:58:03;25.30;;;6.30;;
17872;SDS011;36318;42.620;23.338;2022-08-25T09:00:35;34.00;;;7.45;;
17872;SDS011;36318;42.620;23.338;2022-08-25T09:03:05;33.60;;;7.53;;
17872;SDS011;36318;42.620;23.338;2022-08-25T09:05:36;28.05;;;6.45;;
17872;SDS011;36318;42.620;23.338;2022-08-25T09:08:10;33.15;;;6.78;;
17872;SDS011;36318;42.620;23.338;2022-08-25T09:10:41;39.28;;;6.65;;
17872;SDS011;36318;42.620;23.338;2022-08-25T09:13:22;25.85;;;6.43;;
17872;SDS011;36318;42.620;23.338;2022-08-25T09:15:59;38.63;;;6.47;;
17872;SDS011;36318;42.620;23.338;2022-08-25T09:18:50;21.30;;;6.40;;
17872;SDS011;36318;42.620;23.338;2022-08-25T09:21:26;32.17;;;6.25;;
17872;SDS011;36318;42.620;23.338;2022-08-25T09:24:06;35.70;;;6.35;;
17872;SDS011;36318;42.620;23.338;2022-08-25T09:26:48;32.00;;;7.00;;
17872;SDS011;36318;42.620;23.338;2022-08-25T09:29:27;28.38;;;6.03;;
17872;SDS011;36318;42.620;23.338;2022-08-25T09:32:00;43.17;;;6.38;;
17872;SDS011;36318;42.620;23.338;2022-08-25T09:34:30;29.67;;;6.75;;
17872;SDS011;36318;42.620;23.338;2022-08-25T09:36:59;28.02;;;6.18;;
17872;SDS011;36318;42.620;23.338;2022-08-25T09:39:26;32.03;;;6.32;;
17872;SDS011;36318;42.620;23.338;2022-08-25T09:41:55;24.33;;;5.80;;
17872;SDS011;36318;42.620;23.338;2022-08-25T09:44:25;35.47;;;6.93;;
17872;SDS011;36318;42.620;23.338;2022-08-25T09:46:54;22.73;;;6.32;;
17872;SDS011;36318;42.620;23.338;2022-08-25T09:49:31;29.08;;;6.03;;
17872;SDS011;36318;42.620;23.338;2022-08-25T09:54:56;30.45;;;6.18;;
17872;SDS011;36318;42.620;23.338;2022-08-25T09:57:34;28.63;;;7.15;;
17872;SDS011;36318;42.620;23.338;2022-08-25T10:00:12;46.22;;;19.42;;
17872;SDS011;36318;42.620;23.338;2022-08-25T10:02:42;28.75;;;6.93;;
17872;SDS011;36318;42.620;23.338;2022-08-25T10:05:25;26.48;;;6.32;;
17872;SDS011;36318;42.620;23.338;2022-08-25T10:07:54;30.42;;;6.00;;
17872;SDS011;36318;42.620;23.338;2022-08-25T10:10:27;26.25;;;5.82;;
17872;SDS011;36318;42.620;23.338;2022-08-25T10:12:57;24.38;;;5.05;;
17872;SDS011;36318;42.620;23.338;2022-08-25T10:15:27;28.70;;;5.20;;
17872;SDS011;36318;42.620;23.338;2022-08-25T10:18:15;25.40;;;5.22;;
17872;SDS011;36318;42.620;23.338;2022-08-25T10:20:59;25.85;;;5.13;;
17872;SDS011;36318;42.620;23.338;2022-08-25T10:23:27;37.13;;;6.28;;
17872;SDS011;36318;42.620;23.338;2022-08-25T10:25:54;25.75;;;5.80;;
17872;SDS011;36318;42.620;23.338;2022-08-25T10:28:30;31.23;;;5.28;;
17872;SDS011;36318;42.620;23.338;2022-08-25T10:31:05;32.47;;;5.85;;
17872;SDS011;36318;42.620;23.338;2022-08-25T10:33:42;23.17;;;5.40;;
17872;SDS011;36318;42.620;23.338;2022-08-25T10:36:20;28.05;;;5.03;;
17872;SDS011;36318;42.620;23.338;2022-08-25T10:38:54;26.02;;;5.20;;
17872;SDS011;36318;42.620;23.338;2022-08-25T10:44:18;34.05;;;5.18;;
17872;SDS011;36318;42.620;23.338;2022-08-25T10:47:16;37.10;;;5.50;;
17872;SDS011;36318;42.620;23.338;2022-08-25T10:49:55;29.45;;;5.75;;
17872;SDS011;36318;42.620;23.338;2022-08-25T10:52:30;23.60;;;5.18;;
17872;SDS011;36318;42.620;23.338;2022-08-25T10:55:05;29.33;;;5.25;;
17872;SDS011;36318;42.620;23.338;2022-08-25T10:57:42;19.25;;;4.07;;
17872;SDS011;36318;42.620;23.338;2022-08-25T11:00:21;22.95;;;3.83;;
17872;SDS011;36318;42.620;23.338;2022-08-25T11:02:59;27.83;;;4.70;;
17872;SDS011;36318;42.620;23.338;2022-08-25T11:05:38;26.02;;;8.00;;
17872;SDS011;36318;42.620;23.338;2022-08-25T11:08:09;36.65;;;4.88;;
17872;SDS011;36318;42.620;23.338;2022-08-25T11:10:43;27.85;;;4.20;;
17872;SDS011;36318;42.620;23.338;2022-08-25T11:13:16;24.58;;;5.10;;
17872;SDS011;36318;42.620;23.338;2022-08-25T11:15:53;21.48;;;4.70;;
17872;SDS011;36318;42.620;23.338;2022-08-25T11:18:24;37.05;;;5.78;;
17872;SDS011;36318;42.620;23.338;2022-08-25T11:20:58;20.30;;;4.35;;
17872;SDS011;36318;42.620;23.338;2022-08-25T11:23:33;30.63;;;5.15;;
17872;SDS011;36318;42.620;23.338;2022-08-25T11:26:04;16.45;;;4.38;;
17872;SDS011;36318;42.620;23.338;2022-08-25T11:28:39;26.85;;;4.50;;
17872;SDS011;36318;42.620;23.338;2022-08-25T11:31:16;24.70;;;4.45;;
17872;SDS011;36318;42.620;23.338;2022-08-25T11:33:45;29.40;;;5.28;;
17872;SDS011;36318;42.620;23.338;2022-08-25T11:36:15;28.05;;;4.43;;
17872;SDS011;36318;42.620;23.338;2022-08-25T11:38:53;24.42;;;5.03;;
17872;SDS011;36318;42.620;23.338;2022-08-25T11:41:32;21.52;;;4.55;;
17872;SDS011;36318;42.620;23.338;2022-08-25T11:44:18;24.75;;;4.95;;
17872;SDS011;36318;42.620;23.338;2022-08-25T11:47:08;16.98;;;4.28;;
17872;SDS011;36318;42.620;23.338;2022-08-25T11:49:56;23.85;;;5.05;;
17872;SDS011;36318;42.620;23.338;2022-08-25T11:52:47;24.20;;;4.75;;
17872;SDS011;36318;42.620;23.338;2022-08-25T11:55:19;23.60;;;4.95;;
17872;SDS011;36318;42.620;23.338;2022-08-25T11:57:51;25.27;;;4.93;;
17872;SDS011;36318;42.620;23.338;2022-08-25T12:00:46;37.67;;;5.25;;
17872;SDS011;36318;42.620;23.338;2022-08-25T12:06:23;26.83;;;4.80;;
17872;SDS011;36318;42.620;23.338;2022-08-25T12:11:50;24.85;;;5.00;;
17872;SDS011;36318;42.620;23.338;2022-08-25T12:17:20;31.98;;;5.20;;
17872;SDS011;36318;42.620;23.338;2022-08-25T12:19:57;24.38;;;4.80;;
17872;SDS011;36318;42.620;23.338;2022-08-25T12:22:38;24.92;;;4.85;;
17872;SDS011;36318;42.620;23.338;2022-08-25T12:25:44;23.52;;;4.85;;
17872;SDS011;36318;42.620;23.338;2022-08-25T12:28:21;23.88;;;8.10;;
17872;SDS011;36318;42.620;23.338;2022-08-25T12:30:57;13.65;;;4.60;;
17872;SDS011;36318;42.620;23.338;2022-08-25T12:33:31;20.33;;;5.00;;
17872;SDS011;36318;42.620;23.338;2022-08-25T12:36:08;20.70;;;4.80;;
17872;SDS011;36318;42.620;23.338;2022-08-25T12:38:50;22.83;;;4.50;;
17872;SDS011;36318;42.620;23.338;2022-08-25T12:41:19;19.88;;;4.60;;
17872;SDS011;36318;42.620;23.338;2022-08-25T12:43:48;18.30;;;5.07;;
17872;SDS011;36318;42.620;23.338;2022-08-25T12:46:34;20.13;;;4.57;;
17872;SDS011;36318;42.620;23.338;2022-08-25T12:49:04;17.25;;;4.45;;
17872;SDS011;36318;42.620;23.338;2022-08-25T12:57:22;17.77;;;4.18;;
17872;SDS011;36318;42.620;23.338;2022-08-25T13:00:11;23.40;;;4.30;;
17872;SDS011;36318;42.620;23.338;2022-08-25T13:06:15;12.30;;;3.95;;
17872;SDS011;36318;42.620;23.338;2022-08-25T13:09:03;15.88;;;4.35;;
17872;SDS011;36318;42.620;23.338;2022-08-25T13:12:01;18.70;;;4.28;;
17872;SDS011;36318;42.620;23.338;2022-08-25T13:14:37;21.38;;;4.25;;
17872;SDS011;36318;42.620;23.338;2022-08-25T13:17:05;22.15;;;4.22;;
17872;SDS011;36318;42.620;23.338;2022-08-25T13:19:33;23.05;;;4.00;;
17872;SDS011;36318;42.620;23.338;2022-08-25T13:22:02;16.20;;;4.38;;
17872;SDS011;36318;42.620;23.338;2022-08-25T13:24:40;17.42;;;4.55;;
17872;SDS011;36318;42.620;23.338;2022-08-25T13:27:09;23.00;;;5.40;;
17872;SDS011;36318;42.620;23.338;2022-08-25T13:29:48;18.67;;;4.90;;
17872;SDS011;36318;42.620;23.338;2022-08-25T13:32:23;20.77;;;4.70;;
17872;SDS011;36318;42.620;23.338;2022-08-25T13:34:51;21.10;;;3.83;;
17872;SDS011;36318;42.620;23.338;2022-08-25T13:37:34;18.80;;;4.35;;
17872;SDS011;36318;42.620;23.338;2022-08-25T13:40:09;17.95;;;4.22;;
17872;SDS011;36318;42.620;23.338;2022-08-25T13:42:41;21.27;;;4.40;;
17872;SDS011;36318;42.620;23.338;2022-08-25T13:45:11;17.10;;;4.45;;
17872;SDS011;36318;42.620;23.338;2022-08-25T13:47:40;19.67;;;4.63;;
17872;SDS011;36318;42.620;23.338;2022-08-25T13:50:16;23.40;;;4.80;;
17872;SDS011;36318;42.620;23.338;2022-08-25T13:52:46;11.77;;;3.95;;
17872;SDS011;36318;42.620;23.338;2022-08-25T13:55:19;26.95;;;4.78;;
17872;SDS011;36318;42.620;23.338;2022-08-25T13:57:50;20.90;;;4.80;;
17872;SDS011;36318;42.620;23.338;2022-08-25T14:00:25;27.23;;;4.85;;
17872;SDS011;36318;42.620;23.338;2022-08-25T14:02:54;17.75;;;4.40;;
17872;SDS011;36318;42.620;23.338;2022-08-25T14:05:30;20.60;;;4.90;;
17872;SDS011;36318;42.620;23.338;2022-08-25T14:08:00;24.00;;;5.30;;
17872;SDS011;36318;42.620;23.338;2022-08-25T14:10:34;24.15;;;4.57;;
17872;SDS011;36318;42.620;23.338;2022-08-25T14:13:11;17.48;;;4.35;;
17872;SDS011;36318;42.620;23.338;2022-08-25T14:15:41;11.55;;;4.47;;
17872;SDS011;36318;42.620;23.338;2022-08-25T14:18:11;26.40;;;4.85;;
17872;SDS011;36318;42.620;23.338;2022-08-25T14:20:44;18.55;;;5.10;;
17872;SDS011;36318;42.620;23.338;2022-08-25T14:23:15;20.88;;;4.40;;
17872;SDS011;36318;42.620;23.338;2022-08-25T14:25:45;29.60;;;5.55;;
17872;SDS011;36318;42.620;23.338;2022-08-25T14:28:13;20.80;;;4.22;;
17872;SDS011;36318;42.620;23.338;2022-08-25T14:30:42;24.35;;;5.85;;
17872;SDS011;36318;42.620;23.338;2022-08-25T14:33:12;27.05;;;4.85;;
17872;SDS011;36318;42.620;23.338;2022-08-25T14:35:40;17.15;;;4.55;;
17872;SDS011;36318;42.620;23.338;2022-08-25T14:38:10;24.13;;;5.05;;
17872;SDS011;36318;42.620;23.338;2022-08-25T14:40:37;27.90;;;4.78;;
17872;SDS011;36318;42.620;23.338;2022-08-25T14:43:06;20.88;;;4.88;;
17872;SDS011;36318;42.620;23.338;2022-08-25T14:45:33;20.58;;;4.28;;
17872;SDS011;36318;42.620;23.338;2022-08-25T14:48:02;30.48;;;5.40;;
17872;SDS011;36318;42.620;23.338;2022-08-25T14:50:32;23.15;;;5.05;;
17872;SDS011;36318;42.620;23.338;2022-08-25T14:52:59;21.63;;;4.47;;
17872;SDS011;36318;42.620;23.338;2022-08-25T14:55:27;25.58;;;5.15;;
17872;SDS011;36318;42.620;23.338;2022-08-25T14:57:54;16.23;;;4.57;;
17872;SDS011;36318;42.620;23.338;2022-08-25T15:00:25;23.25;;;4.45;;
17872;SDS011;36318;42.620;23.338;2022-08-25T15:02:52;21.17;;;4.25;;